<?xml version="1.0" encoding="UTF-8" standalone="no" ?>
<gpx xmlns="http://www.topografix.com/GPX/1/1" xmlns:xsi="http://www.w3.org/2001/XMLSchema-instance" xsi:schemaLocation="http://www.topografix.com/GPX/1/1 http://www.topografix.com/GPX/1/1/gpx.xsd" version="1.1" creator="VisuGPX - https://www.visugpx.com">
  <metadata>
    <name>Tour de France 2019</name>
    <desc><![CDATA[4272km en 2 mois en tandem avec notre petit chien dans le panier avant]]></desc>
  </metadata>
  <trk>
    <name><![CDATA[Tracé 20191017-100811]]></name>
    <trkseg>
      <trkpt lat="42.62402" lon="8.94897">
        <ele>105.912</ele>
        <time>2019-10-17T08:22:17Z</time>
      </trkpt>
      <trkpt lat="42.62224" lon="8.9497">
        <ele>115.348</ele>
        <time>2019-10-17T08:26:29Z</time>
      </trkpt>
      <trkpt lat="42.62294" lon="8.95185">
        <ele>114.558</ele>
        <time>2019-10-17T08:29:20Z</time>
      </trkpt>
      <trkpt lat="42.6254" lon="8.95037">
        <ele>96.385</ele>
        <time>2019-10-17T08:29:59Z</time>
      </trkpt>
      <trkpt lat="42.62758" lon="8.95206">
        <ele>82.986</ele>
        <time>2019-10-17T08:30:35Z</time>
      </trkpt>
      <trkpt lat="42.62946" lon="8.94933">
        <ele>64.24</ele>
        <time>2019-10-17T08:31:11Z</time>
      </trkpt>
      <trkpt lat="42.63012" lon="8.94619">
        <ele>48.737</ele>
        <time>2019-10-17T08:31:47Z</time>
      </trkpt>
      <trkpt lat="42.6296" lon="8.94314">
        <ele>22.531</ele>
        <time>2019-10-17T08:32:23Z</time>
      </trkpt>
      <trkpt lat="42.63018" lon="8.94091">
        <ele>13.285</ele>
        <time>2019-10-17T08:33:02Z</time>
      </trkpt>
      <trkpt lat="42.63173" lon="8.93895">
        <ele>7.402</ele>
        <time>2019-10-17T08:33:38Z</time>
      </trkpt>
      <trkpt lat="42.63253" lon="8.93748">
        <ele>11.393</ele>
        <time>2019-10-17T08:34:14Z</time>
      </trkpt>
      <trkpt lat="42.63217" lon="8.93609">
        <ele>21.887</ele>
        <time>2019-10-17T08:34:50Z</time>
      </trkpt>
      <trkpt lat="42.63184" lon="8.93497">
        <ele>27.656</ele>
        <time>2019-10-17T08:35:26.001Z</time>
      </trkpt>
      <trkpt lat="42.63142" lon="8.93388">
        <ele>37.27</ele>
        <time>2019-10-17T08:36:05.001Z</time>
      </trkpt>
      <trkpt lat="42.63086" lon="8.93304">
        <ele>42.447</ele>
        <time>2019-10-17T08:36:41.001Z</time>
      </trkpt>
      <trkpt lat="42.63035" lon="8.93215">
        <ele>35.364</ele>
        <time>2019-10-17T08:37:17.001Z</time>
      </trkpt>
      <trkpt lat="42.6298" lon="8.93136">
        <ele>40.945</ele>
        <time>2019-10-17T08:37:53.001Z</time>
      </trkpt>
      <trkpt lat="42.62927" lon="8.93055">
        <ele>42.096</ele>
        <time>2019-10-17T08:38:29.001Z</time>
      </trkpt>
      <trkpt lat="42.62871" lon="8.92967">
        <ele>48.528</ele>
        <time>2019-10-17T08:39:08.001Z</time>
      </trkpt>
      <trkpt lat="42.62815" lon="8.9289">
        <ele>47.353</ele>
        <time>2019-10-17T08:39:44.001Z</time>
      </trkpt>
      <trkpt lat="42.6276" lon="8.92805">
        <ele>53.544</ele>
        <time>2019-10-17T08:40:20.001Z</time>
      </trkpt>
      <trkpt lat="42.62711" lon="8.92722">
        <ele>59.716</ele>
        <time>2019-10-17T08:40:56.001Z</time>
      </trkpt>
      <trkpt lat="42.62716" lon="8.9262">
        <ele>78.423</ele>
        <time>2019-10-17T08:41:32.001Z</time>
      </trkpt>
      <trkpt lat="42.6274" lon="8.92513">
        <ele>83.177</ele>
        <time>2019-10-17T08:42:11.001Z</time>
      </trkpt>
      <trkpt lat="42.62746" lon="8.92411">
        <ele>88.419</ele>
        <time>2019-10-17T08:42:47.001Z</time>
      </trkpt>
      <trkpt lat="42.62751" lon="8.92284">
        <ele>96.961</ele>
        <time>2019-10-17T08:43:23.001Z</time>
      </trkpt>
      <trkpt lat="42.6265" lon="8.92154">
        <ele>80.013</ele>
        <time>2019-10-17T08:43:59.001Z</time>
      </trkpt>
      <trkpt lat="42.62492" lon="8.9207">
        <ele>79.577</ele>
        <time>2019-10-17T08:44:35.001Z</time>
      </trkpt>
      <trkpt lat="42.62411" lon="8.91782">
        <ele>74.333</ele>
        <time>2019-10-17T08:45:14.001Z</time>
      </trkpt>
      <trkpt lat="42.62377" lon="8.91477">
        <ele>67.176</ele>
        <time>2019-10-17T08:45:50.001Z</time>
      </trkpt>
      <trkpt lat="42.62351" lon="8.91153">
        <ele>64.559</ele>
        <time>2019-10-17T08:46:26.001Z</time>
      </trkpt>
      <trkpt lat="42.62357" lon="8.90822">
        <ele>62.685</ele>
        <time>2019-10-17T08:47:02Z</time>
      </trkpt>
      <trkpt lat="42.62353" lon="8.90501">
        <ele>57.593</ele>
        <time>2019-10-17T08:47:38.001Z</time>
      </trkpt>
      <trkpt lat="42.62321" lon="8.90248">
        <ele>62.42</ele>
        <time>2019-10-17T08:48:17.001Z</time>
      </trkpt>
      <trkpt lat="42.62288" lon="8.9008">
        <ele>63.595</ele>
        <time>2019-10-17T08:48:53.001Z</time>
      </trkpt>
      <trkpt lat="42.62248" lon="8.89956">
        <ele>66.281</ele>
        <time>2019-10-17T08:49:29.001Z</time>
      </trkpt>
      <trkpt lat="42.62175" lon="8.8985">
        <ele>68.871</ele>
        <time>2019-10-17T08:50:05.001Z</time>
      </trkpt>
      <trkpt lat="42.62085" lon="8.89768">
        <ele>73.546</ele>
        <time>2019-10-17T08:50:41.001Z</time>
      </trkpt>
      <trkpt lat="42.62081" lon="8.89621">
        <ele>81.773</ele>
        <time>2019-10-17T08:51:20.001Z</time>
      </trkpt>
      <trkpt lat="42.62036" lon="8.89482">
        <ele>87.864</ele>
        <time>2019-10-17T08:51:56.001Z</time>
      </trkpt>
      <trkpt lat="42.61993" lon="8.8935">
        <ele>83.74</ele>
        <time>2019-10-17T08:52:32.001Z</time>
      </trkpt>
      <trkpt lat="42.62008" lon="8.89197">
        <ele>88.184</ele>
        <time>2019-10-17T08:53:08.001Z</time>
      </trkpt>
      <trkpt lat="42.61965" lon="8.89095">
        <ele>81.606</ele>
        <time>2019-10-17T08:54:59.001Z</time>
      </trkpt>
      <trkpt lat="42.61725" lon="8.89178">
        <ele>69.548</ele>
        <time>2019-10-17T08:55:38.001Z</time>
      </trkpt>
      <trkpt lat="42.61285" lon="8.89254">
        <ele>46.675</ele>
        <time>2019-10-17T08:56:14.001Z</time>
      </trkpt>
      <trkpt lat="42.61022" lon="8.88851">
        <ele>23.11</ele>
        <time>2019-10-17T08:56:50.001Z</time>
      </trkpt>
      <trkpt lat="42.60959" lon="8.8836">
        <ele>11.961</ele>
        <time>2019-10-17T08:57:26.001Z</time>
      </trkpt>
      <trkpt lat="42.6091" lon="8.87949">
        <ele>10.425</ele>
        <time>2019-10-17T08:58:02Z</time>
      </trkpt>
      <trkpt lat="42.6087" lon="8.87602">
        <ele>9.732</ele>
        <time>2019-10-17T08:58:41.001Z</time>
      </trkpt>
      <trkpt lat="42.60827" lon="8.87256">
        <ele>8.429</ele>
        <time>2019-10-17T08:59:17.001Z</time>
      </trkpt>
      <trkpt lat="42.60781" lon="8.86958">
        <ele>3.142</ele>
        <time>2019-10-17T08:59:53.001Z</time>
      </trkpt>
      <trkpt lat="42.60695" lon="8.86688">
        <ele>6.724</ele>
        <time>2019-10-17T09:00:29.001Z</time>
      </trkpt>
      <trkpt lat="42.60676" lon="8.86574">
        <ele>14.234</ele>
        <time>2019-10-17T09:01:05.001Z</time>
      </trkpt>
      <trkpt lat="42.60657" lon="8.86478">
        <ele>21.906</ele>
        <time>2019-10-17T09:01:44.001Z</time>
      </trkpt>
      <trkpt lat="42.6064" lon="8.86387">
        <ele>31.839</ele>
        <time>2019-10-17T09:02:20.001Z</time>
      </trkpt>
      <trkpt lat="42.60628" lon="8.86297">
        <ele>42.321</ele>
        <time>2019-10-17T09:02:56.001Z</time>
      </trkpt>
      <trkpt lat="42.60626" lon="8.86203">
        <ele>40.54</ele>
        <time>2019-10-17T09:03:32.001Z</time>
      </trkpt>
      <trkpt lat="42.60637" lon="8.86111">
        <ele>48.288</ele>
        <time>2019-10-17T09:04:08.001Z</time>
      </trkpt>
      <trkpt lat="42.60677" lon="8.86001">
        <ele>46.37</ele>
        <time>2019-10-17T09:04:47.001Z</time>
      </trkpt>
      <trkpt lat="42.60743" lon="8.85863">
        <ele>49.205</ele>
        <time>2019-10-17T09:05:23.001Z</time>
      </trkpt>
      <trkpt lat="42.60752" lon="8.85542">
        <ele>31.702</ele>
        <time>2019-10-17T09:05:59.001Z</time>
      </trkpt>
      <trkpt lat="42.60583" lon="8.8531">
        <ele>30.537</ele>
        <time>2019-10-17T09:06:35.001Z</time>
      </trkpt>
      <trkpt lat="42.60537" lon="8.85169">
        <ele>37.141</ele>
        <time>2019-10-17T09:07:11.001Z</time>
      </trkpt>
      <trkpt lat="42.60558" lon="8.85018">
        <ele>51.561</ele>
        <time>2019-10-17T09:07:50.001Z</time>
      </trkpt>
      <trkpt lat="42.60583" lon="8.84866">
        <ele>48.448</ele>
        <time>2019-10-17T09:08:26.001Z</time>
      </trkpt>
      <trkpt lat="42.60606" lon="8.84717">
        <ele>47.893</ele>
        <time>2019-10-17T09:09:02Z</time>
      </trkpt>
      <trkpt lat="42.6061" lon="8.84573">
        <ele>48.829</ele>
        <time>2019-10-17T09:09:38.001Z</time>
      </trkpt>
      <trkpt lat="42.60563" lon="8.8444">
        <ele>49.131</ele>
        <time>2019-10-17T09:10:14.001Z</time>
      </trkpt>
      <trkpt lat="42.60469" lon="8.84338">
        <ele>53.466</ele>
        <time>2019-10-17T09:10:53.001Z</time>
      </trkpt>
      <trkpt lat="42.60409" lon="8.84208">
        <ele>55.947</ele>
        <time>2019-10-17T09:11:29.001Z</time>
      </trkpt>
      <trkpt lat="42.60332" lon="8.84115">
        <ele>58.068</ele>
        <time>2019-10-17T09:12:05.001Z</time>
      </trkpt>
      <trkpt lat="42.60207" lon="8.84144">
        <ele>61.516</ele>
        <time>2019-10-17T09:12:41.001Z</time>
      </trkpt>
      <trkpt lat="42.60087" lon="8.8412">
        <ele>61.595</ele>
        <time>2019-10-17T09:13:17.001Z</time>
      </trkpt>
      <trkpt lat="42.59986" lon="8.84003">
        <ele>67.857</ele>
        <time>2019-10-17T09:13:56.001Z</time>
      </trkpt>
      <trkpt lat="42.59885" lon="8.83925">
        <ele>71.304</ele>
        <time>2019-10-17T09:14:32.001Z</time>
      </trkpt>
      <trkpt lat="42.59772" lon="8.8388">
        <ele>71.383</ele>
        <time>2019-10-17T09:15:08.001Z</time>
      </trkpt>
      <trkpt lat="42.59662" lon="8.83825">
        <ele>76.22</ele>
        <time>2019-10-17T09:15:44.001Z</time>
      </trkpt>
      <trkpt lat="42.59548" lon="8.83808">
        <ele>77.012</ele>
        <time>2019-10-17T09:16:20.001Z</time>
      </trkpt>
      <trkpt lat="42.59495" lon="8.83684">
        <ele>85.96</ele>
        <time>2019-10-17T09:16:59.001Z</time>
      </trkpt>
      <trkpt lat="42.59437" lon="8.8363">
        <ele>88.246</ele>
        <time>2019-10-17T09:17:35.001Z</time>
      </trkpt>
      <trkpt lat="42.59364" lon="8.83645">
        <ele>93.738</ele>
        <time>2019-10-17T09:18:11.001Z</time>
      </trkpt>
      <trkpt lat="42.59312" lon="8.83723">
        <ele>99.781</ele>
        <time>2019-10-17T09:18:47.001Z</time>
      </trkpt>
      <trkpt lat="42.59261" lon="8.83799">
        <ele>104.818</ele>
        <time>2019-10-17T09:19:23.001Z</time>
      </trkpt>
      <trkpt lat="42.59194" lon="8.83802">
        <ele>106.942</ele>
        <time>2019-10-17T09:19:59.001Z</time>
      </trkpt>
      <trkpt lat="42.59124" lon="8.8375">
        <ele>112.745</ele>
        <time>2019-10-17T09:20:38.001Z</time>
      </trkpt>
      <trkpt lat="42.59067" lon="8.83693">
        <ele>118.08</ele>
        <time>2019-10-17T09:21:14.001Z</time>
      </trkpt>
      <trkpt lat="42.59004" lon="8.83634">
        <ele>123.143</ele>
        <time>2019-10-17T09:21:50.001Z</time>
      </trkpt>
      <trkpt lat="42.58948" lon="8.8358">
        <ele>127.881</ele>
        <time>2019-10-17T09:22:26.001Z</time>
      </trkpt>
      <trkpt lat="42.58897" lon="8.83506">
        <ele>127.883</ele>
        <time>2019-10-17T09:23:02Z</time>
      </trkpt>
      <trkpt lat="42.58879" lon="8.83398">
        <ele>131.064</ele>
        <time>2019-10-17T09:23:41.001Z</time>
      </trkpt>
      <trkpt lat="42.58866" lon="8.83306">
        <ele>135.786</ele>
        <time>2019-10-17T09:24:17.001Z</time>
      </trkpt>
      <trkpt lat="42.58855" lon="8.83216">
        <ele>141.008</ele>
        <time>2019-10-17T09:24:53.001Z</time>
      </trkpt>
      <trkpt lat="42.58842" lon="8.83129">
        <ele>152.029</ele>
        <time>2019-10-17T09:25:29.001Z</time>
      </trkpt>
      <trkpt lat="42.58863" lon="8.8304">
        <ele>158.965</ele>
        <time>2019-10-17T09:26:05.001Z</time>
      </trkpt>
      <trkpt lat="42.58869" lon="8.82941">
        <ele>156.319</ele>
        <time>2019-10-17T09:26:44.001Z</time>
      </trkpt>
      <trkpt lat="42.5884" lon="8.82858">
        <ele>162.192</ele>
        <time>2019-10-17T09:27:20.001Z</time>
      </trkpt>
      <trkpt lat="42.58788" lon="8.82803">
        <ele>160.92</ele>
        <time>2019-10-17T09:27:56.001Z</time>
      </trkpt>
      <trkpt lat="42.58723" lon="8.82782">
        <ele>162.5</ele>
        <time>2019-10-17T09:28:32.001Z</time>
      </trkpt>
      <trkpt lat="42.58658" lon="8.82754">
        <ele>169.676</ele>
        <time>2019-10-17T09:29:08.001Z</time>
      </trkpt>
      <trkpt lat="42.58593" lon="8.82728">
        <ele>177.299</ele>
        <time>2019-10-17T09:29:47.001Z</time>
      </trkpt>
      <trkpt lat="42.58529" lon="8.82746">
        <ele>177.041</ele>
        <time>2019-10-17T09:30:23.001Z</time>
      </trkpt>
      <trkpt lat="42.58507" lon="8.82834">
        <ele>180.543</ele>
        <time>2019-10-17T09:31:02Z</time>
      </trkpt>
      <trkpt lat="42.58492" lon="8.82926">
        <ele>186.497</ele>
        <time>2019-10-17T09:31:38.001Z</time>
      </trkpt>
      <trkpt lat="42.5848" lon="8.83013">
        <ele>191.429</ele>
        <time>2019-10-17T09:32:14.001Z</time>
      </trkpt>
      <trkpt lat="42.58455" lon="8.83107">
        <ele>198.907</ele>
        <time>2019-10-17T09:32:53.001Z</time>
      </trkpt>
      <trkpt lat="42.58399" lon="8.83145">
        <ele>203.35</ele>
        <time>2019-10-17T09:33:29.001Z</time>
      </trkpt>
      <trkpt lat="42.58338" lon="8.83162">
        <ele>200.24</ele>
        <time>2019-10-17T09:42:11.001Z</time>
      </trkpt>
      <trkpt lat="42.58193" lon="8.83162">
        <ele>198.184</ele>
        <time>2019-10-17T09:42:50.001Z</time>
      </trkpt>
      <trkpt lat="42.57945" lon="8.83145">
        <ele>181.999</ele>
        <time>2019-10-17T09:43:26.001Z</time>
      </trkpt>
      <trkpt lat="42.57681" lon="8.83374">
        <ele>157.581</ele>
        <time>2019-10-17T09:44:05.001Z</time>
      </trkpt>
      <trkpt lat="42.5738" lon="8.83079">
        <ele>132.016</ele>
        <time>2019-10-17T09:44:41.001Z</time>
      </trkpt>
      <trkpt lat="42.57014" lon="8.82905">
        <ele>97.721</ele>
        <time>2019-10-17T09:45:17.001Z</time>
      </trkpt>
      <trkpt lat="42.56765" lon="8.82315">
        <ele>64.943</ele>
        <time>2019-10-17T09:45:53.001Z</time>
      </trkpt>
      <trkpt lat="42.56539" lon="8.81659">
        <ele>33.021</ele>
        <time>2019-10-17T09:46:29.001Z</time>
      </trkpt>
      <trkpt lat="42.5641" lon="8.81007">
        <ele>14.075</ele>
        <time>2019-10-17T09:47:08.001Z</time>
      </trkpt>
      <trkpt lat="42.5632" lon="8.80549">
        <ele>8.121</ele>
        <time>2019-10-17T09:47:44.001Z</time>
      </trkpt>
      <trkpt lat="42.56203" lon="8.80325">
        <ele>11.471</ele>
        <time>2019-10-17T09:48:20.001Z</time>
      </trkpt>
      <trkpt lat="42.56088" lon="8.80124">
        <ele>14.886</ele>
        <time>2019-10-17T09:48:56.001Z</time>
      </trkpt>
      <trkpt lat="42.55966" lon="8.79918">
        <ele>18.711</ele>
        <time>2019-10-17T09:49:32.001Z</time>
      </trkpt>
      <trkpt lat="42.55837" lon="8.79694">
        <ele>21.071</ele>
        <time>2019-10-17T09:50:11.001Z</time>
      </trkpt>
      <trkpt lat="42.55706" lon="8.7947">
        <ele>12.766</ele>
        <time>2019-10-17T09:50:47.001Z</time>
      </trkpt>
      <trkpt lat="42.55552" lon="8.7921">
        <ele>3.94</ele>
        <time>2019-10-17T09:51:23.001Z</time>
      </trkpt>
      <trkpt lat="42.55422" lon="8.79023">
        <ele>6.567</ele>
        <time>2019-10-17T09:51:59.001Z</time>
      </trkpt>
      <trkpt lat="42.55255" lon="8.78928">
        <ele>8.282</ele>
        <time>2019-10-17T09:52:35.001Z</time>
      </trkpt>
      <trkpt lat="42.55049" lon="8.78805">
        <ele>4.645</ele>
        <time>2019-10-17T09:53:14.001Z</time>
      </trkpt>
      <trkpt lat="42.54926" lon="8.78621">
        <ele>6.304</ele>
        <time>2019-10-17T09:53:50.001Z</time>
      </trkpt>
      <trkpt lat="42.54954" lon="8.78425">
        <ele>10.282</ele>
        <time>2019-10-17T09:54:26.001Z</time>
      </trkpt>
      <trkpt lat="42.55014" lon="8.78247">
        <ele>13.57</ele>
        <time>2019-10-17T09:55:02Z</time>
      </trkpt>
      <trkpt lat="42.551" lon="8.77985">
        <ele>12.038</ele>
        <time>2019-10-17T09:55:38.001Z</time>
      </trkpt>
      <trkpt lat="42.55219" lon="8.77596">
        <ele>5.062</ele>
        <time>2019-10-17T09:56:17.001Z</time>
      </trkpt>
      <trkpt lat="42.55172" lon="8.77276">
        <ele>4.364</ele>
        <time>2019-10-17T09:56:53.001Z</time>
      </trkpt>
      <trkpt lat="42.5509" lon="8.76986">
        <ele>2.502</ele>
        <time>2019-10-17T09:57:29.001Z</time>
      </trkpt>
      <trkpt lat="42.55067" lon="8.76706">
        <ele>7.528</ele>
        <time>2019-10-17T09:58:05.001Z</time>
      </trkpt>
      <trkpt lat="42.55223" lon="8.7646">
        <ele>10.547</ele>
        <time>2019-10-17T09:58:41.001Z</time>
      </trkpt>
      <trkpt lat="42.55404" lon="8.76257">
        <ele>4.504</ele>
        <time>2019-10-17T09:59:20.001Z</time>
      </trkpt>
      <trkpt lat="42.55569" lon="8.76066">
        <ele>7.641</ele>
        <time>2019-10-17T09:59:56.001Z</time>
      </trkpt>
      <trkpt lat="42.55746" lon="8.75867">
        <ele>6.276</ele>
        <time>2019-10-17T10:00:32.001Z</time>
      </trkpt>
      <trkpt lat="42.55918" lon="8.75704">
        <ele>7.095</ele>
        <time>2019-10-17T10:01:08.001Z</time>
      </trkpt>
      <trkpt lat="42.5609" lon="8.75595">
        <ele>9.016</ele>
        <time>2019-10-17T10:01:44.001Z</time>
      </trkpt>
      <trkpt lat="42.56156" lon="8.75534">
        <ele>9.662</ele>
        <time>2019-10-17T10:02:53.001Z</time>
      </trkpt>
      <trkpt lat="42.56122" lon="8.75488">
        <ele>8.359</ele>
        <time>2019-10-17T10:06:29.001Z</time>
      </trkpt>
      <trkpt lat="42.56157" lon="8.75518">
        <ele>17.441</ele>
        <time>2019-10-17T10:24:50.001Z</time>
      </trkpt>
      <trkpt lat="42.56252" lon="8.75578">
        <ele>8.386</ele>
        <time>2019-10-17T10:25:26.001Z</time>
      </trkpt>
      <trkpt lat="42.56348" lon="8.75603">
        <ele>5.504</ele>
        <time>2019-10-17T10:26:02Z</time>
      </trkpt>
      <trkpt lat="42.56476" lon="8.75648">
        <ele>2.304</ele>
        <time>2019-10-17T10:26:41.001Z</time>
      </trkpt>
      <trkpt lat="42.56552" lon="8.75717">
        <ele>12.341</ele>
        <time>2019-10-17T10:27:17.001Z</time>
      </trkpt>
      <trkpt lat="42.56609" lon="8.75782">
        <ele>8.335</ele>
        <time>2019-10-17T10:27:53.001Z</time>
      </trkpt>
      <trkpt lat="42.56626" lon="8.75842">
        <ele>11.767</ele>
        <time>2019-10-17T10:29:47.001Z</time>
      </trkpt>
      <trkpt lat="42.56616" lon="8.75851">
        <ele>7.163</ele>
        <time>2019-10-17T10:34:23.001Z</time>
      </trkpt>
      <trkpt lat="42.56621" lon="8.75846">
        <ele>4.205</ele>
        <time>2019-10-17T10:38:38.001Z</time>
      </trkpt>
      <trkpt lat="42.56622" lon="8.75845">
        <ele>5.576</ele>
        <time>2019-10-17T10:46:44.001Z</time>
      </trkpt>
      <trkpt lat="42.56623" lon="8.75844">
        <ele>5.318</ele>
        <time>2019-10-17T11:35:59.001Z</time>
      </trkpt>
      <trkpt lat="42.56627" lon="8.75839">
        <ele>4.604</ele>
        <time>2019-10-17T11:52:05.001Z</time>
      </trkpt>
      <trkpt lat="42.56653" lon="8.75871">
        <ele>7.183</ele>
        <time>2019-10-17T12:14:47.001Z</time>
      </trkpt>
      <trkpt lat="42.56722" lon="8.75953">
        <ele>11.13</ele>
        <time>2019-10-17T12:15:26.001Z</time>
      </trkpt>
      <trkpt lat="42.56753" lon="8.75875">
        <ele>10.453</ele>
        <time>2019-10-17T12:16:11.001Z</time>
      </trkpt>
      <trkpt lat="42.56799" lon="8.75836">
        <ele>27.425</ele>
        <time>2019-10-17T12:17:44.001Z</time>
      </trkpt>
      <trkpt lat="42.56848" lon="8.75737">
        <ele>23.015</ele>
        <time>2019-10-17T12:18:20.001Z</time>
      </trkpt>
      <trkpt lat="42.56874" lon="8.75621">
        <ele>32.124</ele>
        <time>2019-10-17T12:18:56.001Z</time>
      </trkpt>
      <trkpt lat="42.56823" lon="8.75495">
        <ele>33.819</ele>
        <time>2019-10-17T12:19:35.001Z</time>
      </trkpt>
      <trkpt lat="42.56808" lon="8.7536">
        <ele>30.156</ele>
        <time>2019-10-17T12:20:11.001Z</time>
      </trkpt>
      <trkpt lat="42.56842" lon="8.75239">
        <ele>32.133</ele>
        <time>2019-10-17T12:20:47.001Z</time>
      </trkpt>
      <trkpt lat="42.56825" lon="8.751">
        <ele>30.663</ele>
        <time>2019-10-17T12:21:23.001Z</time>
      </trkpt>
      <trkpt lat="42.56748" lon="8.74995">
        <ele>32.444</ele>
        <time>2019-10-17T12:21:59.001Z</time>
      </trkpt>
      <trkpt lat="42.56633" lon="8.74915">
        <ele>36.057</ele>
        <time>2019-10-17T12:22:35.001Z</time>
      </trkpt>
      <trkpt lat="42.56574" lon="8.74736">
        <ele>38.014</ele>
        <time>2019-10-17T12:23:14.001Z</time>
      </trkpt>
      <trkpt lat="42.56481" lon="8.74619">
        <ele>42.738</ele>
        <time>2019-10-17T12:23:50.001Z</time>
      </trkpt>
      <trkpt lat="42.5643" lon="8.74466">
        <ele>45.525</ele>
        <time>2019-10-17T12:24:26.001Z</time>
      </trkpt>
      <trkpt lat="42.56401" lon="8.74321">
        <ele>48.895</ele>
        <time>2019-10-17T12:25:02Z</time>
      </trkpt>
      <trkpt lat="42.56362" lon="8.74189">
        <ele>47.091</ele>
        <time>2019-10-17T12:25:38.001Z</time>
      </trkpt>
      <trkpt lat="42.56301" lon="8.74056">
        <ele>48.659</ele>
        <time>2019-10-17T12:26:17.001Z</time>
      </trkpt>
      <trkpt lat="42.56271" lon="8.73921">
        <ele>53.088</ele>
        <time>2019-10-17T12:26:53.001Z</time>
      </trkpt>
      <trkpt lat="42.56266" lon="8.73775">
        <ele>60.759</ele>
        <time>2019-10-17T12:27:29.001Z</time>
      </trkpt>
      <trkpt lat="42.56219" lon="8.73641">
        <ele>62.307</ele>
        <time>2019-10-17T12:28:05.001Z</time>
      </trkpt>
      <trkpt lat="42.56186" lon="8.73503">
        <ele>63.423</ele>
        <time>2019-10-17T12:28:41.001Z</time>
      </trkpt>
      <trkpt lat="42.56116" lon="8.73387">
        <ele>66.084</ele>
        <time>2019-10-17T12:29:20.001Z</time>
      </trkpt>
      <trkpt lat="42.56081" lon="8.7326">
        <ele>67.126</ele>
        <time>2019-10-17T12:29:56.001Z</time>
      </trkpt>
      <trkpt lat="42.56016" lon="8.73154">
        <ele>67.904</ele>
        <time>2019-10-17T12:30:32.001Z</time>
      </trkpt>
      <trkpt lat="42.55942" lon="8.73083">
        <ele>77.158</ele>
        <time>2019-10-17T12:31:08.001Z</time>
      </trkpt>
      <trkpt lat="42.55863" lon="8.73009">
        <ele>84.134</ele>
        <time>2019-10-17T12:31:44.001Z</time>
      </trkpt>
      <trkpt lat="42.55797" lon="8.72889">
        <ele>85.028</ele>
        <time>2019-10-17T12:32:23.001Z</time>
      </trkpt>
      <trkpt lat="42.55708" lon="8.72833">
        <ele>91.919</ele>
        <time>2019-10-17T12:32:59.001Z</time>
      </trkpt>
      <trkpt lat="42.55652" lon="8.72726">
        <ele>92.155</ele>
        <time>2019-10-17T12:33:35.001Z</time>
      </trkpt>
      <trkpt lat="42.55586" lon="8.72638">
        <ele>98.025</ele>
        <time>2019-10-17T12:34:11.001Z</time>
      </trkpt>
      <trkpt lat="42.55593" lon="8.72527">
        <ele>99.769</ele>
        <time>2019-10-17T12:34:47.001Z</time>
      </trkpt>
      <trkpt lat="42.55487" lon="8.72436">
        <ele>101.144</ele>
        <time>2019-10-17T12:35:26.001Z</time>
      </trkpt>
      <trkpt lat="42.55333" lon="8.72392">
        <ele>103.616</ele>
        <time>2019-10-17T12:36:02Z</time>
      </trkpt>
      <trkpt lat="42.55244" lon="8.72251">
        <ele>98.992</ele>
        <time>2019-10-17T12:36:38.001Z</time>
      </trkpt>
      <trkpt lat="42.55121" lon="8.72094">
        <ele>95.703</ele>
        <time>2019-10-17T12:37:14.001Z</time>
      </trkpt>
      <trkpt lat="42.54903" lon="8.72037">
        <ele>89.97</ele>
        <time>2019-10-17T12:37:50.001Z</time>
      </trkpt>
      <trkpt lat="42.54766" lon="8.72321">
        <ele>85.959</ele>
        <time>2019-10-17T12:38:29.001Z</time>
      </trkpt>
      <trkpt lat="42.54802" lon="8.72536">
        <ele>71.787</ele>
        <time>2019-10-17T12:39:05.001Z</time>
      </trkpt>
      <trkpt lat="42.5473" lon="8.72773">
        <ele>60.145</ele>
        <time>2019-10-17T12:39:41.001Z</time>
      </trkpt>
      <trkpt lat="42.54491" lon="8.72878">
        <ele>43.762</ele>
        <time>2019-10-17T12:40:17.001Z</time>
      </trkpt>
      <trkpt lat="42.54454" lon="8.72761">
        <ele>43.23</ele>
        <time>2019-10-17T12:40:53.001Z</time>
      </trkpt>
      <trkpt lat="42.54505" lon="8.72665">
        <ele>53.72</ele>
        <time>2019-10-17T12:41:32.001Z</time>
      </trkpt>
      <trkpt lat="42.54496" lon="8.72561">
        <ele>55.71</ele>
        <time>2019-10-17T12:42:08.001Z</time>
      </trkpt>
      <trkpt lat="42.54416" lon="8.7249">
        <ele>57.682</ele>
        <time>2019-10-17T12:42:44.001Z</time>
      </trkpt>
      <trkpt lat="42.54372" lon="8.72403">
        <ele>61.009</ele>
        <time>2019-10-17T12:43:20.001Z</time>
      </trkpt>
      <trkpt lat="42.54401" lon="8.72289">
        <ele>67.245</ele>
        <time>2019-10-17T12:43:56.001Z</time>
      </trkpt>
      <trkpt lat="42.54412" lon="8.72158">
        <ele>68.48</ele>
        <time>2019-10-17T12:44:35.001Z</time>
      </trkpt>
      <trkpt lat="42.54408" lon="8.72036">
        <ele>68.162</ele>
        <time>2019-10-17T12:45:11.001Z</time>
      </trkpt>
      <trkpt lat="42.54362" lon="8.71964">
        <ele>71.866</ele>
        <time>2019-10-17T12:46:53.001Z</time>
      </trkpt>
      <trkpt lat="42.54254" lon="8.71995">
        <ele>78.016</ele>
        <time>2019-10-17T12:47:29.001Z</time>
      </trkpt>
      <trkpt lat="42.54174" lon="8.72109">
        <ele>78.542</ele>
        <time>2019-10-17T12:48:05.001Z</time>
      </trkpt>
      <trkpt lat="42.54088" lon="8.72296">
        <ele>76.042</ele>
        <time>2019-10-17T12:48:44.001Z</time>
      </trkpt>
      <trkpt lat="42.53983" lon="8.7245">
        <ele>79.322</ele>
        <time>2019-10-17T12:49:20.001Z</time>
      </trkpt>
      <trkpt lat="42.53848" lon="8.72514">
        <ele>81.882</ele>
        <time>2019-10-17T12:49:56.001Z</time>
      </trkpt>
      <trkpt lat="42.5373" lon="8.72399">
        <ele>78.12</ele>
        <time>2019-10-17T12:50:32.001Z</time>
      </trkpt>
      <trkpt lat="42.5367" lon="8.72211">
        <ele>74.577</ele>
        <time>2019-10-17T12:51:08.001Z</time>
      </trkpt>
      <trkpt lat="42.53554" lon="8.72112">
        <ele>76.498</ele>
        <time>2019-10-17T12:51:47.001Z</time>
      </trkpt>
      <trkpt lat="42.53356" lon="8.71937">
        <ele>72.51</ele>
        <time>2019-10-17T12:52:23.001Z</time>
      </trkpt>
      <trkpt lat="42.5315" lon="8.71979">
        <ele>67.812</ele>
        <time>2019-10-17T12:52:59.001Z</time>
      </trkpt>
      <trkpt lat="42.5295" lon="8.72066">
        <ele>71.587</ele>
        <time>2019-10-17T12:53:35.001Z</time>
      </trkpt>
      <trkpt lat="42.5298" lon="8.72314">
        <ele>60.987</ele>
        <time>2019-10-17T12:54:11.001Z</time>
      </trkpt>
      <trkpt lat="42.53024" lon="8.72585">
        <ele>61.094</ele>
        <time>2019-10-17T12:54:50.001Z</time>
      </trkpt>
      <trkpt lat="42.52915" lon="8.7276">
        <ele>65.123</ele>
        <time>2019-10-17T12:55:26.001Z</time>
      </trkpt>
      <trkpt lat="42.52768" lon="8.72847">
        <ele>65.315</ele>
        <time>2019-10-17T12:56:02Z</time>
      </trkpt>
      <trkpt lat="42.52646" lon="8.72884">
        <ele>70.773</ele>
        <time>2019-10-17T12:56:38.001Z</time>
      </trkpt>
      <trkpt lat="42.52544" lon="8.72879">
        <ele>75.899</ele>
        <time>2019-10-17T12:57:14.001Z</time>
      </trkpt>
      <trkpt lat="42.52468" lon="8.72816">
        <ele>80.484</ele>
        <time>2019-10-17T12:57:53.001Z</time>
      </trkpt>
      <trkpt lat="42.52421" lon="8.72657">
        <ele>78.611</ele>
        <time>2019-10-17T12:58:29.001Z</time>
      </trkpt>
      <trkpt lat="42.52326" lon="8.72279">
        <ele>63.171</ele>
        <time>2019-10-17T12:59:05.001Z</time>
      </trkpt>
      <trkpt lat="42.52071" lon="8.72088">
        <ele>46.954</ele>
        <time>2019-10-17T12:59:41.001Z</time>
      </trkpt>
      <trkpt lat="42.52017" lon="8.71928">
        <ele>45.585</ele>
        <time>2019-10-17T13:00:17.001Z</time>
      </trkpt>
      <trkpt lat="42.52069" lon="8.71798">
        <ele>50.577</ele>
        <time>2019-10-17T13:00:56.001Z</time>
      </trkpt>
      <trkpt lat="42.52124" lon="8.71705">
        <ele>53.751</ele>
        <time>2019-10-17T13:01:32.001Z</time>
      </trkpt>
      <trkpt lat="42.5215" lon="8.71601">
        <ele>58.807</ele>
        <time>2019-10-17T13:02:08.001Z</time>
      </trkpt>
      <trkpt lat="42.52192" lon="8.71509">
        <ele>66.429</ele>
        <time>2019-10-17T13:02:44.001Z</time>
      </trkpt>
      <trkpt lat="42.52269" lon="8.71468">
        <ele>70.633</ele>
        <time>2019-10-17T13:03:20.001Z</time>
      </trkpt>
      <trkpt lat="42.52323" lon="8.71378">
        <ele>76.261</ele>
        <time>2019-10-17T13:03:59.001Z</time>
      </trkpt>
      <trkpt lat="42.5232" lon="8.71259">
        <ele>79.864</ele>
        <time>2019-10-17T13:04:35.001Z</time>
      </trkpt>
      <trkpt lat="42.52249" lon="8.71217">
        <ele>82.009</ele>
        <time>2019-10-17T13:05:11.001Z</time>
      </trkpt>
      <trkpt lat="42.52163" lon="8.71237">
        <ele>83.086</ele>
        <time>2019-10-17T13:05:47.001Z</time>
      </trkpt>
      <trkpt lat="42.52095" lon="8.71164">
        <ele>89.409</ele>
        <time>2019-10-17T13:06:23.001Z</time>
      </trkpt>
      <trkpt lat="42.52006" lon="8.71057">
        <ele>89.84</ele>
        <time>2019-10-17T13:07:02Z</time>
      </trkpt>
      <trkpt lat="42.51925" lon="8.70889">
        <ele>85.634</ele>
        <time>2019-10-17T13:07:38.001Z</time>
      </trkpt>
      <trkpt lat="42.51858" lon="8.70713">
        <ele>84.771</ele>
        <time>2019-10-17T13:08:14.001Z</time>
      </trkpt>
      <trkpt lat="42.51886" lon="8.70592">
        <ele>83.418</ele>
        <time>2019-10-17T13:08:50.001Z</time>
      </trkpt>
      <trkpt lat="42.52058" lon="8.70563">
        <ele>86.384</ele>
        <time>2019-10-17T13:09:26.001Z</time>
      </trkpt>
      <trkpt lat="42.52161" lon="8.70427">
        <ele>92.932</ele>
        <time>2019-10-17T13:10:02Z</time>
      </trkpt>
      <trkpt lat="42.52267" lon="8.70304">
        <ele>96.292</ele>
        <time>2019-10-17T13:10:41.001Z</time>
      </trkpt>
      <trkpt lat="42.52248" lon="8.70155">
        <ele>94.523</ele>
        <time>2019-10-17T13:11:17.001Z</time>
      </trkpt>
      <trkpt lat="42.52139" lon="8.70082">
        <ele>99.067</ele>
        <time>2019-10-17T13:11:53.001Z</time>
      </trkpt>
      <trkpt lat="42.52044" lon="8.69981">
        <ele>99.388</ele>
        <time>2019-10-17T13:12:29.001Z</time>
      </trkpt>
      <trkpt lat="42.51958" lon="8.69868">
        <ele>101.492</ele>
        <time>2019-10-17T13:13:05.001Z</time>
      </trkpt>
      <trkpt lat="42.51895" lon="8.69722">
        <ele>107.645</ele>
        <time>2019-10-17T13:13:44.001Z</time>
      </trkpt>
      <trkpt lat="42.51842" lon="8.69597">
        <ele>108.385</ele>
        <time>2019-10-17T13:14:20.001Z</time>
      </trkpt>
      <trkpt lat="42.5184" lon="8.6943">
        <ele>110.974</ele>
        <time>2019-10-17T13:14:56.001Z</time>
      </trkpt>
      <trkpt lat="42.51796" lon="8.69273">
        <ele>110.917</ele>
        <time>2019-10-17T13:15:32.001Z</time>
      </trkpt>
      <trkpt lat="42.51737" lon="8.69127">
        <ele>113.529</ele>
        <time>2019-10-17T13:16:08.001Z</time>
      </trkpt>
      <trkpt lat="42.51613" lon="8.69111">
        <ele>111.992</ele>
        <time>2019-10-17T13:16:47.001Z</time>
      </trkpt>
      <trkpt lat="42.51533" lon="8.69036">
        <ele>118.863</ele>
        <time>2019-10-17T13:17:23.001Z</time>
      </trkpt>
      <trkpt lat="42.51495" lon="8.68909">
        <ele>118.015</ele>
        <time>2019-10-17T13:17:59.001Z</time>
      </trkpt>
      <trkpt lat="42.51447" lon="8.68772">
        <ele>120.646</ele>
        <time>2019-10-17T13:18:35.001Z</time>
      </trkpt>
      <trkpt lat="42.51386" lon="8.68663">
        <ele>121.726</ele>
        <time>2019-10-17T13:19:11.001Z</time>
      </trkpt>
      <trkpt lat="42.51325" lon="8.68569">
        <ele>130.267</ele>
        <time>2019-10-17T13:19:50.001Z</time>
      </trkpt>
      <trkpt lat="42.5124" lon="8.685">
        <ele>128.599</ele>
        <time>2019-10-17T13:20:26.001Z</time>
      </trkpt>
      <trkpt lat="42.51141" lon="8.68445">
        <ele>127.075</ele>
        <time>2019-10-17T13:21:02Z</time>
      </trkpt>
      <trkpt lat="42.51058" lon="8.6838">
        <ele>127.653</ele>
        <time>2019-10-17T13:21:38.001Z</time>
      </trkpt>
      <trkpt lat="42.50984" lon="8.68291">
        <ele>137.225</ele>
        <time>2019-10-17T13:22:14.001Z</time>
      </trkpt>
      <trkpt lat="42.50877" lon="8.68232">
        <ele>141.095</ele>
        <time>2019-10-17T13:22:53.001Z</time>
      </trkpt>
      <trkpt lat="42.5074" lon="8.68054">
        <ele>132.656</ele>
        <time>2019-10-17T13:23:29.001Z</time>
      </trkpt>
      <trkpt lat="42.50571" lon="8.68007">
        <ele>121.31</ele>
        <time>2019-10-17T13:24:05.001Z</time>
      </trkpt>
      <trkpt lat="42.50395" lon="8.67839">
        <ele>109.078</ele>
        <time>2019-10-17T13:24:41.001Z</time>
      </trkpt>
      <trkpt lat="42.50234" lon="8.67924">
        <ele>91.336</ele>
        <time>2019-10-17T13:25:17.001Z</time>
      </trkpt>
      <trkpt lat="42.50012" lon="8.68114">
        <ele>84.421</ele>
        <time>2019-10-17T13:25:56.001Z</time>
      </trkpt>
      <trkpt lat="42.49777" lon="8.68268">
        <ele>69.977</ele>
        <time>2019-10-17T13:26:32.001Z</time>
      </trkpt>
      <trkpt lat="42.49543" lon="8.68391">
        <ele>60.178</ele>
        <time>2019-10-17T13:27:08.001Z</time>
      </trkpt>
      <trkpt lat="42.49289" lon="8.68369">
        <ele>44.028</ele>
        <time>2019-10-17T13:27:44.001Z</time>
      </trkpt>
      <trkpt lat="42.49127" lon="8.68439">
        <ele>38.068</ele>
        <time>2019-10-17T13:28:20.001Z</time>
      </trkpt>
      <trkpt lat="42.48911" lon="8.68476">
        <ele>36.943</ele>
        <time>2019-10-17T13:28:59.001Z</time>
      </trkpt>
      <trkpt lat="42.48686" lon="8.68467">
        <ele>33.515</ele>
        <time>2019-10-17T13:29:35.001Z</time>
      </trkpt>
      <trkpt lat="42.4851" lon="8.68322">
        <ele>28.003</ele>
        <time>2019-10-17T13:30:11.001Z</time>
      </trkpt>
      <trkpt lat="42.48324" lon="8.68419">
        <ele>25.961</ele>
        <time>2019-10-17T13:30:47.001Z</time>
      </trkpt>
      <trkpt lat="42.48202" lon="8.68548">
        <ele>22.019</ele>
        <time>2019-10-17T13:31:23.001Z</time>
      </trkpt>
      <trkpt lat="42.48042" lon="8.68532">
        <ele>19.437</ele>
        <time>2019-10-17T13:32:02Z</time>
      </trkpt>
      <trkpt lat="42.47955" lon="8.68683">
        <ele>19.407</ele>
        <time>2019-10-17T13:32:38.001Z</time>
      </trkpt>
      <trkpt lat="42.47905" lon="8.68822">
        <ele>13.741</ele>
        <time>2019-10-17T13:33:14.001Z</time>
      </trkpt>
      <trkpt lat="42.47807" lon="8.68969">
        <ele>16.311</ele>
        <time>2019-10-17T13:33:50.001Z</time>
      </trkpt>
      <trkpt lat="42.47688" lon="8.6886">
        <ele>19.072</ele>
        <time>2019-10-17T13:34:26.001Z</time>
      </trkpt>
      <trkpt lat="42.47643" lon="8.68642">
        <ele>17.171</ele>
        <time>2019-10-17T13:35:05.001Z</time>
      </trkpt>
      <trkpt lat="42.47577" lon="8.68444">
        <ele>13.544</ele>
        <time>2019-10-17T13:35:41.001Z</time>
      </trkpt>
      <trkpt lat="42.47431" lon="8.68419">
        <ele>11.502</ele>
        <time>2019-10-17T13:36:17.001Z</time>
      </trkpt>
      <trkpt lat="42.47317" lon="8.68329">
        <ele>11.855</ele>
        <time>2019-10-17T13:36:53.001Z</time>
      </trkpt>
      <trkpt lat="42.47208" lon="8.6817">
        <ele>15.346</ele>
        <time>2019-10-17T13:37:29.001Z</time>
      </trkpt>
      <trkpt lat="42.47096" lon="8.68244">
        <ele>11.095</ele>
        <time>2019-10-17T13:38:08.001Z</time>
      </trkpt>
      <trkpt lat="42.47006" lon="8.68356">
        <ele>9.129</ele>
        <time>2019-10-17T13:38:44.001Z</time>
      </trkpt>
      <trkpt lat="42.46886" lon="8.6827">
        <ele>15.88</ele>
        <time>2019-10-17T13:39:20.001Z</time>
      </trkpt>
      <trkpt lat="42.46746" lon="8.68223">
        <ele>14.314</ele>
        <time>2019-10-17T13:39:56.001Z</time>
      </trkpt>
      <trkpt lat="42.46597" lon="8.68164">
        <ele>16.624</ele>
        <time>2019-10-17T13:40:32.001Z</time>
      </trkpt>
      <trkpt lat="42.46461" lon="8.68288">
        <ele>17.252</ele>
        <time>2019-10-17T13:41:11.001Z</time>
      </trkpt>
      <trkpt lat="42.46381" lon="8.68269">
        <ele>21.819</ele>
        <time>2019-10-17T13:41:47.001Z</time>
      </trkpt>
      <trkpt lat="42.46403" lon="8.68141">
        <ele>28.04</ele>
        <time>2019-10-17T13:42:23.001Z</time>
      </trkpt>
      <trkpt lat="42.46442" lon="8.68052">
        <ele>33.613</ele>
        <time>2019-10-17T13:42:59.001Z</time>
      </trkpt>
      <trkpt lat="42.46455" lon="8.67944">
        <ele>35.39</ele>
        <time>2019-10-17T13:43:35.001Z</time>
      </trkpt>
      <trkpt lat="42.46447" lon="8.67838">
        <ele>36.382</ele>
        <time>2019-10-17T13:44:14.001Z</time>
      </trkpt>
      <trkpt lat="42.46458" lon="8.67736">
        <ele>37.475</ele>
        <time>2019-10-17T13:44:50.001Z</time>
      </trkpt>
      <trkpt lat="42.46387" lon="8.67686">
        <ele>41.639</ele>
        <time>2019-10-17T13:45:26.001Z</time>
      </trkpt>
      <trkpt lat="42.46301" lon="8.67666">
        <ele>48.22</ele>
        <time>2019-10-17T13:46:02Z</time>
      </trkpt>
      <trkpt lat="42.46225" lon="8.67598">
        <ele>53.801</ele>
        <time>2019-10-17T13:46:38.001Z</time>
      </trkpt>
      <trkpt lat="42.4615" lon="8.67528">
        <ele>63.136</ele>
        <time>2019-10-17T13:47:17.001Z</time>
      </trkpt>
      <trkpt lat="42.46126" lon="8.67413">
        <ele>62.961</ele>
        <time>2019-10-17T13:47:53.001Z</time>
      </trkpt>
      <trkpt lat="42.46055" lon="8.67344">
        <ele>64.171</ele>
        <time>2019-10-17T13:48:29.001Z</time>
      </trkpt>
      <trkpt lat="42.45989" lon="8.67409">
        <ele>62.716</ele>
        <time>2019-10-17T13:49:05.001Z</time>
      </trkpt>
      <trkpt lat="42.45935" lon="8.67327">
        <ele>70.104</ele>
        <time>2019-10-17T13:49:41.001Z</time>
      </trkpt>
      <trkpt lat="42.45884" lon="8.6726">
        <ele>74.42</ele>
        <time>2019-10-17T13:50:20.001Z</time>
      </trkpt>
      <trkpt lat="42.45808" lon="8.67225">
        <ele>76.641</ele>
        <time>2019-10-17T13:50:56.001Z</time>
      </trkpt>
      <trkpt lat="42.4576" lon="8.67147">
        <ele>83.915</ele>
        <time>2019-10-17T13:51:32.001Z</time>
      </trkpt>
      <trkpt lat="42.45672" lon="8.67168">
        <ele>85.551</ele>
        <time>2019-10-17T13:52:08.001Z</time>
      </trkpt>
      <trkpt lat="42.45605" lon="8.6723">
        <ele>85.565</ele>
        <time>2019-10-17T13:52:44.001Z</time>
      </trkpt>
      <trkpt lat="42.45565" lon="8.67299">
        <ele>86.312</ele>
        <time>2019-10-17T13:53:23.001Z</time>
      </trkpt>
      <trkpt lat="42.45511" lon="8.67204">
        <ele>99.331</ele>
        <time>2019-10-17T13:53:59.001Z</time>
      </trkpt>
      <trkpt lat="42.45446" lon="8.67197">
        <ele>98.559</ele>
        <time>2019-10-17T13:54:35.001Z</time>
      </trkpt>
      <trkpt lat="42.45374" lon="8.67221">
        <ele>97.03</ele>
        <time>2019-10-17T13:55:11.001Z</time>
      </trkpt>
      <trkpt lat="42.45297" lon="8.67172">
        <ele>102.076</ele>
        <time>2019-10-17T13:55:47.001Z</time>
      </trkpt>
      <trkpt lat="42.45212" lon="8.67227">
        <ele>105.394</ele>
        <time>2019-10-17T13:56:26.001Z</time>
      </trkpt>
      <trkpt lat="42.45168" lon="8.6733">
        <ele>108.255</ele>
        <time>2019-10-17T13:57:02Z</time>
      </trkpt>
      <trkpt lat="42.45116" lon="8.67327">
        <ele>110.787</ele>
        <time>2019-10-17T13:57:38.001Z</time>
      </trkpt>
      <trkpt lat="42.45033" lon="8.6728">
        <ele>114.668</ele>
        <time>2019-10-17T13:58:14.001Z</time>
      </trkpt>
      <trkpt lat="42.44976" lon="8.67407">
        <ele>111.348</ele>
        <time>2019-10-17T13:58:50.001Z</time>
      </trkpt>
      <trkpt lat="42.44891" lon="8.67314">
        <ele>114.966</ele>
        <time>2019-10-17T13:59:26.001Z</time>
      </trkpt>
      <trkpt lat="42.44789" lon="8.67434">
        <ele>115.497</ele>
        <time>2019-10-17T14:00:05.001Z</time>
      </trkpt>
      <trkpt lat="42.44654" lon="8.67414">
        <ele>114.671</ele>
        <time>2019-10-17T14:00:41.001Z</time>
      </trkpt>
      <trkpt lat="42.4458" lon="8.67323">
        <ele>114.596</ele>
        <time>2019-10-17T14:01:17.001Z</time>
      </trkpt>
      <trkpt lat="42.44521" lon="8.67368">
        <ele>113.237</ele>
        <time>2019-10-17T14:06:17.001Z</time>
      </trkpt>
      <trkpt lat="42.44457" lon="8.67425">
        <ele>112.894</ele>
        <time>2019-10-17T14:06:53.001Z</time>
      </trkpt>
      <trkpt lat="42.44432" lon="8.67282">
        <ele>112.457</ele>
        <time>2019-10-17T14:08:05.001Z</time>
      </trkpt>
      <trkpt lat="42.44357" lon="8.67153">
        <ele>115.735</ele>
        <time>2019-10-17T14:08:41.001Z</time>
      </trkpt>
      <trkpt lat="42.44293" lon="8.67003">
        <ele>116.302</ele>
        <time>2019-10-17T14:09:17.001Z</time>
      </trkpt>
      <trkpt lat="42.4426" lon="8.66815">
        <ele>116.794</ele>
        <time>2019-10-17T14:09:53.001Z</time>
      </trkpt>
      <trkpt lat="42.44296" lon="8.66619">
        <ele>115.059</ele>
        <time>2019-10-17T14:10:29.001Z</time>
      </trkpt>
      <trkpt lat="42.44293" lon="8.66406">
        <ele>115.525</ele>
        <time>2019-10-17T14:11:08.001Z</time>
      </trkpt>
      <trkpt lat="42.44253" lon="8.6622">
        <ele>114.586</ele>
        <time>2019-10-17T14:11:44.001Z</time>
      </trkpt>
      <trkpt lat="42.44088" lon="8.66212">
        <ele>111.411</ele>
        <time>2019-10-17T14:12:20.001Z</time>
      </trkpt>
      <trkpt lat="42.43871" lon="8.66204">
        <ele>107.653</ele>
        <time>2019-10-17T14:12:56.001Z</time>
      </trkpt>
      <trkpt lat="42.43695" lon="8.66381">
        <ele>103.128</ele>
        <time>2019-10-17T14:13:32.001Z</time>
      </trkpt>
      <trkpt lat="42.43688" lon="8.66686">
        <ele>96.542</ele>
        <time>2019-10-17T14:14:11.001Z</time>
      </trkpt>
      <trkpt lat="42.43706" lon="8.67011">
        <ele>86.025</ele>
        <time>2019-10-17T14:14:47.001Z</time>
      </trkpt>
      <trkpt lat="42.43565" lon="8.67032">
        <ele>83.923</ele>
        <time>2019-10-17T14:15:23.001Z</time>
      </trkpt>
      <trkpt lat="42.43441" lon="8.6679">
        <ele>68.009</ele>
        <time>2019-10-17T14:15:59.001Z</time>
      </trkpt>
      <trkpt lat="42.43265" lon="8.66611">
        <ele>67.546</ele>
        <time>2019-10-17T14:16:35.001Z</time>
      </trkpt>
      <trkpt lat="42.43104" lon="8.66695">
        <ele>64.369</ele>
        <time>2019-10-17T14:17:14.001Z</time>
      </trkpt>
      <trkpt lat="42.42935" lon="8.66592">
        <ele>58.78</ele>
        <time>2019-10-17T14:17:50.001Z</time>
      </trkpt>
      <trkpt lat="42.42806" lon="8.66672">
        <ele>59.466</ele>
        <time>2019-10-17T14:18:26.001Z</time>
      </trkpt>
      <trkpt lat="42.4264" lon="8.66645">
        <ele>52.856</ele>
        <time>2019-10-17T14:19:02Z</time>
      </trkpt>
      <trkpt lat="42.42613" lon="8.66918">
        <ele>52.181</ele>
        <time>2019-10-17T14:19:38.001Z</time>
      </trkpt>
      <trkpt lat="42.42583" lon="8.6717">
        <ele>43.721</ele>
        <time>2019-10-17T14:20:17.001Z</time>
      </trkpt>
      <trkpt lat="42.42539" lon="8.67279">
        <ele>39.868</ele>
        <time>2019-10-17T14:20:53.001Z</time>
      </trkpt>
      <trkpt lat="42.42426" lon="8.67389">
        <ele>37.035</ele>
        <time>2019-10-17T14:21:29.001Z</time>
      </trkpt>
      <trkpt lat="42.42275" lon="8.67623">
        <ele>31.692</ele>
        <time>2019-10-17T14:22:05.001Z</time>
      </trkpt>
      <trkpt lat="42.42286" lon="8.67935">
        <ele>26.25</ele>
        <time>2019-10-17T14:22:41.001Z</time>
      </trkpt>
      <trkpt lat="42.42112" lon="8.67735">
        <ele>24.953</ele>
        <time>2019-10-17T14:23:20.001Z</time>
      </trkpt>
      <trkpt lat="42.41919" lon="8.67631">
        <ele>22.16</ele>
        <time>2019-10-17T14:23:56.001Z</time>
      </trkpt>
      <trkpt lat="42.41826" lon="8.67896">
        <ele>16.114</ele>
        <time>2019-10-17T14:24:32.001Z</time>
      </trkpt>
      <trkpt lat="42.41688" lon="8.68129">
        <ele>10.078</ele>
        <time>2019-10-17T14:25:08.001Z</time>
      </trkpt>
      <trkpt lat="42.41587" lon="8.68267">
        <ele>17.75</ele>
        <time>2019-10-17T14:25:44.001Z</time>
      </trkpt>
      <trkpt lat="42.41396" lon="8.68173">
        <ele>17.193</ele>
        <time>2019-10-17T14:26:23.001Z</time>
      </trkpt>
      <trkpt lat="42.41205" lon="8.68159">
        <ele>16.236</ele>
        <time>2019-10-17T14:26:59.001Z</time>
      </trkpt>
      <trkpt lat="42.41153" lon="8.68054">
        <ele>22.117</ele>
        <time>2019-10-17T14:27:35.001Z</time>
      </trkpt>
      <trkpt lat="42.41135" lon="8.67825">
        <ele>23.709</ele>
        <time>2019-10-17T14:28:11.001Z</time>
      </trkpt>
      <trkpt lat="42.4119" lon="8.67623">
        <ele>21.204</ele>
        <time>2019-10-17T14:28:47.001Z</time>
      </trkpt>
      <trkpt lat="42.41159" lon="8.67466">
        <ele>20.002</ele>
        <time>2019-10-17T14:29:26.001Z</time>
      </trkpt>
      <trkpt lat="42.41182" lon="8.67232">
        <ele>18.519</ele>
        <time>2019-10-17T14:30:02Z</time>
      </trkpt>
      <trkpt lat="42.4133" lon="8.67157">
        <ele>20.623</ele>
        <time>2019-10-17T14:30:38.001Z</time>
      </trkpt>
      <trkpt lat="42.41413" lon="8.66934">
        <ele>20.842</ele>
        <time>2019-10-17T14:31:14.001Z</time>
      </trkpt>
      <trkpt lat="42.41448" lon="8.66731">
        <ele>18.778</ele>
        <time>2019-10-17T14:31:50.001Z</time>
      </trkpt>
      <trkpt lat="42.41576" lon="8.66522">
        <ele>20.357</ele>
        <time>2019-10-17T14:32:29.001Z</time>
      </trkpt>
      <trkpt lat="42.41593" lon="8.66261">
        <ele>16.967</ele>
        <time>2019-10-17T14:33:05.001Z</time>
      </trkpt>
      <trkpt lat="42.41714" lon="8.661">
        <ele>18.977</ele>
        <time>2019-10-17T14:33:41.001Z</time>
      </trkpt>
      <trkpt lat="42.41701" lon="8.65832">
        <ele>10.941</ele>
        <time>2019-10-17T14:34:17.001Z</time>
      </trkpt>
      <trkpt lat="42.41602" lon="8.65648">
        <ele>16.296</ele>
        <time>2019-10-17T14:34:53.001Z</time>
      </trkpt>
      <trkpt lat="42.41494" lon="8.65518">
        <ele>20.969</ele>
        <time>2019-10-17T14:35:32.001Z</time>
      </trkpt>
      <trkpt lat="42.41416" lon="8.65356">
        <ele>25.333</ele>
        <time>2019-10-17T14:36:08.001Z</time>
      </trkpt>
      <trkpt lat="42.41369" lon="8.6515">
        <ele>23.315</ele>
        <time>2019-10-17T14:36:44.001Z</time>
      </trkpt>
      <trkpt lat="42.41265" lon="8.64943">
        <ele>18.886</ele>
        <time>2019-10-17T14:37:20.001Z</time>
      </trkpt>
      <trkpt lat="42.41269" lon="8.64705">
        <ele>11.713</ele>
        <time>2019-10-17T14:37:56.001Z</time>
      </trkpt>
      <trkpt lat="42.41184" lon="8.64549">
        <ele>12.778</ele>
        <time>2019-10-17T14:38:35.001Z</time>
      </trkpt>
      <trkpt lat="42.41093" lon="8.64475">
        <ele>7.436</ele>
        <time>2019-10-17T14:39:11.001Z</time>
      </trkpt>
      <trkpt lat="42.41054" lon="8.64422">
        <ele>11.559</ele>
        <time>2019-10-17T14:44:17.001Z</time>
      </trkpt>
      <trkpt lat="42.41047" lon="8.64405">
        <ele>14.931</ele>
        <time>2019-10-17T14:48:14.001Z</time>
      </trkpt>
      <trkpt lat="42.41048" lon="8.64392">
        <ele>16.761</ele>
        <time>2019-10-17T14:49:26.001Z</time>
      </trkpt>
      <trkpt lat="42.4105" lon="8.64393">
        <ele>17.085</ele>
        <time>2019-10-17T14:57:08.001Z</time>
      </trkpt>
      <trkpt lat="42.41045" lon="8.644">
        <ele>16.304</ele>
        <time>2019-10-17T14:59:20.001Z</time>
      </trkpt>
      <trkpt lat="42.4105" lon="8.64377">
        <ele>4.905</ele>
        <time>2019-10-17T15:00:59.001Z</time>
      </trkpt>
      <trkpt lat="42.41036" lon="8.64398">
        <ele>8.622</ele>
        <time>2019-10-17T15:02:29.001Z</time>
      </trkpt>
      <trkpt lat="42.41045" lon="8.64391">
        <ele>13</ele>
        <time>2019-10-17T15:05:32.001Z</time>
      </trkpt>
      <trkpt lat="42.41049" lon="8.64398">
        <ele>12.8</ele>
        <time>2019-10-17T15:07:32.001Z</time>
      </trkpt>
      <trkpt lat="42.41049" lon="8.64398">
        <ele>12.8</ele>
        <time>2019-10-17T15:09:44.001Z</time>
      </trkpt>
      <trkpt lat="42.41056" lon="8.64397">
        <ele>7.863</ele>
        <time>2019-10-17T15:11:47.001Z</time>
      </trkpt>
      <trkpt lat="42.41053" lon="8.64384">
        <ele>14.674</ele>
        <time>2019-10-17T15:15:19.001Z</time>
      </trkpt>
      <trkpt lat="42.41049" lon="8.64403">
        <ele>5.752</ele>
        <time>2019-10-17T15:19:15.001Z</time>
      </trkpt>
      <trkpt lat="42.41065" lon="8.64384">
        <ele>16.411</ele>
        <time>2019-10-17T15:24:13.001Z</time>
      </trkpt>
      <trkpt lat="42.41048" lon="8.64383">
        <ele>14.904</ele>
        <time>2019-10-17T15:25:31.001Z</time>
      </trkpt>
      <trkpt lat="42.41053" lon="8.6438">
        <ele>13.642</ele>
        <time>2019-10-17T15:27:07.001Z</time>
      </trkpt>
      <trkpt lat="42.41061" lon="8.64391">
        <ele>11.711</ele>
        <time>2019-10-17T15:46:19.001Z</time>
      </trkpt>
      <trkpt lat="42.4107" lon="8.64416">
        <ele>13.572</ele>
        <time>2019-10-17T15:48:25.001Z</time>
      </trkpt>
      <trkpt lat="42.41059" lon="8.64413">
        <ele>9.535</ele>
        <time>2019-10-17T15:51:16Z</time>
      </trkpt>
      <trkpt lat="42.4105" lon="8.644">
        <ele>12.261</ele>
        <time>2019-10-17T16:10:01.001Z</time>
      </trkpt>
      <trkpt lat="42.41049" lon="8.64384">
        <ele>10.909</ele>
        <time>2019-10-17T16:12:22.001Z</time>
      </trkpt>
    </trkseg>
  </trk>
</gpx>